MSC Fortunate — 3FLG6 — position and weather

sailwx.info

Track history (hours):
 
Tides and Currents Weather Stations Pressure Air Temp Water Temp Dewpoint Dewpoint Depression Visibility Wind Speed Wind Dir Waves Ship Positions

MSC Fortunate

Last reported at 2015-Jul-31 04:29 UTC. Time now 2015-Jul-31 13:27 UTC.
Position N 34°12' E 030°28'.

Length 275 m; draft 10.7 m.

Type: Ship. MMSI: 356708000.

Date/timePositionNaut miles runAvg speedWind from/ knotsBaromVisibWave heightAir tempDewpointWater temp
2015-Jul-31 04:29N 34°12' E 030°28'2813.2
2015-Jul-31 02:20N 34°02' E 031°00'1113.4
2015-Jul-31 01:31N 33°58' E 031°13'1813.2
2015-Jul-31 00:10N 33°53' E 031°33'813.1
2015-Jul-30 23:34N 33°51' E 031°42'1512.8
2015-Jul-30 22:23N 33°45' E 031°59'1113.0
2015-Jul-30 21:33N 33°42' E 032°11'1313.0
2015-Jul-30 20:33N 33°37' E 032°26'1313.0
2015-Jul-30 19:33N 33°32' E 032°41'1313.0
2015-Jul-30 18:33N 33°28' E 032°55'1513.0
2015-Jul-30 17:23N 33°23' E 033°12'1113.0
2015-Jul-30 16:33N 33°20' E 033°25'1414.5
2015-Jul-30 15:33N 33°15' E 033°41'3416.7
2015-Jul-30 13:31N 33°04' E 034°20'1515.8
2015-Jul-30 12:34N 32°59' E 034°37'1615.6
2015-Jul-30 11:33N 32°54' E 034°54'7 5.7
2015-Jul-30 10:18N 32°49' E 035°01'0 0.0
2015-Jul-30 08:27N 32°49' E 035°01'0 0.0
2015-Jul-30 06:09N 32°49' E 035°01'0 0.0
2015-Jul-29 19:33N 32°49' E 035°01'0 0.0
2015-Jul-29 18:33N 32°49' E 035°01'0 0.0
2015-Jul-29 17:33N 32°49' E 035°01'0 0.0
2015-Jul-29 16:33N 32°49' E 035°01'0 0.0
2015-Jul-29 15:33N 32°49' E 035°01'0 0.0
2015-Jul-29 12:21N 32°49' E 035°01'8 1.0
2015-Jul-29 04:33N 32°53' E 034°53'1615.9
2015-Jul-29 03:33N 32°39' E 034°46'1817.8
2015-Jul-29 02:34N 32°22' E 034°40'1817.7
2015-Jul-29 01:33N 32°04' E 034°35'  
2015-Jul-26 19:33N 32°15' E 034°38'1616.5
2015-Jul-26 18:33N 32°31' E 034°43'1716.6
2015-Jul-26 17:33N 32°47' E 034°49'1111.3
2015-Jul-26 16:33N 32°50' E 035°01'1 0.0
2015-Jul-25 18:29N 32°49' E 035°01'3 2.8
2015-Jul-25 17:18N 32°52' E 034°58'4 5.9
2015-Jul-25 16:32N 32°53' E 034°53'7 7.3
2015-Jul-25 15:33N 32°54' E 034°45'9 9.1
2015-Jul-25 14:33N 32°56' E 034°34'1212.4
2015-Jul-25 13:33N 32°58' E 034°20'1312.7
2015-Jul-25 12:34N 33°01' E 034°05'1312.6
2015-Jul-25 11:33N 33°03' E 033°50'1212.4
2015-Jul-25 10:34N 33°06' E 033°36'1212.3
2015-Jul-25 09:33N 33°08' E 033°21'1512.2
2015-Jul-25 08:20N 33°11' E 033°04'1012.3
2015-Jul-25 07:33N 33°13' E 032°52'1413.6
2015-Jul-25 06:33N 33°15' E 032°36'1717.2
2015-Jul-25 05:33N 33°19' E 032°16'1414.5
2015-Jul-25 04:33N 33°22' E 031°59'1413.4
2015-Jul-25 03:31N 33°25' E 031°43'1713.6
2015-Jul-25 02:14N 33°28' E 031°22'3713.6
2015-Jul-24 23:29N 33°36' E 030°38'1213.3
2015-Jul-24 22:33N 33°38' E 030°24'60914.1
2015-Jul-23 03:19N 35°46' E 018°19'1114.2
2015-Jul-23 02:33N 35°49' E 018°06'1414.1
2015-Jul-23 01:33N 35°52' E 017°49'1414.2
2015-Jul-23 00:33N 35°55' E 017°33'1614.3
2015-Jul-22 23:28N 35°58' E 017°14'2914.5
2015-Jul-22 21:29N 36°05' E 016°39'1314.4
2015-Jul-22 20:33N 36°08' E 016°23'1514.6
2015-Jul-22 19:33N 36°11' E 016°05'2914.4
2015-Jul-22 17:33N 36°18' E 015°31'1414.0
2015-Jul-22 16:32N 36°21' E 015°13'1414.1
2015-Jul-22 15:33N 36°24' E 014°57'1414.3
2015-Jul-22 14:34N 36°28' E 014°39'1414.2
2015-Jul-22 13:33N 36°31' E 014°22'1414.1
2015-Jul-22 12:34N 36°34' E 014°05'1414.3
2015-Jul-22 11:34N 36°37' E 013°48'1514.7
2015-Jul-22 10:34N 36°40' E 013°30'1514.6
2015-Jul-22 09:34N 36°44' E 013°12'1414.5
2015-Jul-22 08:34N 36°47' E 012°55'1414.4
2015-Jul-22 07:34N 36°50' E 012°37'1515.3
2015-Jul-22 06:34N 36°54' E 012°18'1717.4
2015-Jul-22 05:34N 37°00' E 011°58'1615.6
2015-Jul-22 04:34N 37°08' E 011°41'1514.6
2015-Jul-22 03:33N 37°15' E 011°25'1514.9
2015-Jul-22 02:34N 37°23' E 011°09'1515.1
2015-Jul-22 01:34N 37°26' E 010°51'1515.0
2015-Jul-22 00:33N 37°30' E 010°32'1615.2
2015-Jul-21 23:32N 37°33' E 010°13'1515.1
2015-Jul-21 22:33N 37°32' E 009°54'1515.0
2015-Jul-21 21:34N 37°29' E 009°36'1514.9
2015-Jul-21 20:33N 37°26' E 009°18'1514.8
2015-Jul-21 19:32N 37°22' E 008°59'1414.6
2015-Jul-21 18:33N 37°19' E 008°41'1514.7
2015-Jul-21 17:33N 37°17' E 008°23'1514.6
2015-Jul-21 16:33N 37°18' E 008°05'1514.6
2015-Jul-21 15:31N 37°18' E 007°46'1414.4
2015-Jul-21 14:33N 37°18' E 007°28'1414.2
2015-Jul-21 13:33N 37°18' E 007°10'3413.8
2015-Jul-21 11:04N 37°18' E 006°27'713.3
2015-Jul-21 10:33N 37°17' E 006°18'5613.9
2015-Jul-21 06:33N 37°11' E 005°09'1817.4
2015-Jul-21 05:31N 37°09' E 004°46'1415.2
2015-Jul-21 04:33N 37°08' E 004°28'  
Track history (hours):
 
Tides and Currents Weather Stations Pressure Air Temp Water Temp Dewpoint Dewpoint Depression Visibility Wind Speed Wind Dir Waves Ship Positions

MSC Fortunate

Last reported at 2015-Jul-31 04:29 UTC. Time now 2015-Jul-31 13:27 UTC.
Position N 34°12' E 030°28'.

Length 275 m; draft 10.7 m.

Type: Ship. MMSI: 356708000.

Date/timePositionNaut miles runAvg speedWind from/ knotsBaromVisibWave heightAir tempDewpointWater temp
2015-Jul-31 04:29N 34°12' E 030°28'2813.2
2015-Jul-31 02:20N 34°02' E 031°00'1113.4
2015-Jul-31 01:31N 33°58' E 031°13'1813.2
2015-Jul-31 00:10N 33°53' E 031°33'813.1
2015-Jul-30 23:34N 33°51' E 031°42'1512.8
2015-Jul-30 22:23N 33°45' E 031°59'1113.0
2015-Jul-30 21:33N 33°42' E 032°11'1313.0
2015-Jul-30 20:33N 33°37' E 032°26'1313.0
2015-Jul-30 19:33N 33°32' E 032°41'1313.0
2015-Jul-30 18:33N 33°28' E 032°55'1513.0
2015-Jul-30 17:23N 33°23' E 033°12'1113.0
2015-Jul-30 16:33N 33°20' E 033°25'1414.5
2015-Jul-30 15:33N 33°15' E 033°41'3416.7
2015-Jul-30 13:31N 33°04' E 034°20'1515.8
2015-Jul-30 12:34N 32°59' E 034°37'1615.6
2015-Jul-30 11:33N 32°54' E 034°54'7 5.7
2015-Jul-30 10:18N 32°49' E 035°01'0 0.0
2015-Jul-30 08:27N 32°49' E 035°01'0 0.0
2015-Jul-30 06:09N 32°49' E 035°01'0 0.0
2015-Jul-29 19:33N 32°49' E 035°01'0 0.0
2015-Jul-29 18:33N 32°49' E 035°01'0 0.0
2015-Jul-29 17:33N 32°49' E 035°01'0 0.0
2015-Jul-29 16:33N 32°49' E 035°01'0 0.0
2015-Jul-29 15:33N 32°49' E 035°01'0 0.0
2015-Jul-29 12:21N 32°49' E 035°01'8 1.0
2015-Jul-29 04:33N 32°53' E 034°53'1615.9
2015-Jul-29 03:33N 32°39' E 034°46'1817.8
2015-Jul-29 02:34N 32°22' E 034°40'1817.7
2015-Jul-29 01:33N 32°04' E 034°35'  
2015-Jul-26 19:33N 32°15' E 034°38'1616.5
2015-Jul-26 18:33N 32°31' E 034°43'1716.6
2015-Jul-26 17:33N 32°47' E 034°49'1111.3
2015-Jul-26 16:33N 32°50' E 035°01'1 0.0
2015-Jul-25 18:29N 32°49' E 035°01'3 2.8
2015-Jul-25 17:18N 32°52' E 034°58'4 5.9
2015-Jul-25 16:32N 32°53' E 034°53'7 7.3
2015-Jul-25 15:33N 32°54' E 034°45'9 9.1
2015-Jul-25 14:33N 32°56' E 034°34'1212.4
2015-Jul-25 13:33N 32°58' E 034°20'1312.7
2015-Jul-25 12:34N 33°01' E 034°05'1312.6
2015-Jul-25 11:33N 33°03' E 033°50'1212.4
2015-Jul-25 10:34N 33°06' E 033°36'1212.3
2015-Jul-25 09:33N 33°08' E 033°21'1512.2
2015-Jul-25 08:20N 33°11' E 033°04'1012.3
2015-Jul-25 07:33N 33°13' E 032°52'1413.6
2015-Jul-25 06:33N 33°15' E 032°36'1717.2
2015-Jul-25 05:33N 33°19' E 032°16'1414.5
2015-Jul-25 04:33N 33°22' E 031°59'1413.4
2015-Jul-25 03:31N 33°25' E 031°43'1713.6
2015-Jul-25 02:14N 33°28' E 031°22'3713.6
2015-Jul-24 23:29N 33°36' E 030°38'1213.3
2015-Jul-24 22:33N 33°38' E 030°24'60914.1
2015-Jul-23 03:19N 35°46' E 018°19'1114.2
2015-Jul-23 02:33N 35°49' E 018°06'1414.1
2015-Jul-23 01:33N 35°52' E 017°49'1414.2
2015-Jul-23 00:33N 35°55' E 017°33'1614.3
2015-Jul-22 23:28N 35°58' E 017°14'2914.5
2015-Jul-22 21:29N 36°05' E 016°39'1314.4
2015-Jul-22 20:33N 36°08' E 016°23'1514.6
2015-Jul-22 19:33N 36°11' E 016°05'2914.4
2015-Jul-22 17:33N 36°18' E 015°31'1414.0
2015-Jul-22 16:32N 36°21' E 015°13'1414.1
2015-Jul-22 15:33N 36°24' E 014°57'1414.3
2015-Jul-22 14:34N 36°28' E 014°39'1414.2
2015-Jul-22 13:33N 36°31' E 014°22'1414.1
2015-Jul-22 12:34N 36°34' E 014°05'1414.3
2015-Jul-22 11:34N 36°37' E 013°48'1514.7
2015-Jul-22 10:34N 36°40' E 013°30'1514.6
2015-Jul-22 09:34N 36°44' E 013°12'1414.5
2015-Jul-22 08:34N 36°47' E 012°55'1414.4
2015-Jul-22 07:34N 36°50' E 012°37'1515.3
2015-Jul-22 06:34N 36°54' E 012°18'1717.4
2015-Jul-22 05:34N 37°00' E 011°58'1615.6
2015-Jul-22 04:34N 37°08' E 011°41'1514.6
2015-Jul-22 03:33N 37°15' E 011°25'1514.9
2015-Jul-22 02:34N 37°23' E 011°09'1515.1
2015-Jul-22 01:34N 37°26' E 010°51'1515.0
2015-Jul-22 00:33N 37°30' E 010°32'1615.2
2015-Jul-21 23:32N 37°33' E 010°13'1515.1
2015-Jul-21 22:33N 37°32' E 009°54'1515.0
2015-Jul-21 21:34N 37°29' E 009°36'1514.9
2015-Jul-21 20:33N 37°26' E 009°18'1514.8
2015-Jul-21 19:32N 37°22' E 008°59'1414.6
2015-Jul-21 18:33N 37°19' E 008°41'1514.7
2015-Jul-21 17:33N 37°17' E 008°23'1514.6
2015-Jul-21 16:33N 37°18' E 008°05'1514.6
2015-Jul-21 15:31N 37°18' E 007°46'1414.4
2015-Jul-21 14:33N 37°18' E 007°28'1414.2
2015-Jul-21 13:33N 37°18' E 007°10'3413.8
2015-Jul-21 11:04N 37°18' E 006°27'713.3
2015-Jul-21 10:33N 37°17' E 006°18'5613.9
2015-Jul-21 06:33N 37°11' E 005°09'1817.4
2015-Jul-21 05:31N 37°09' E 004°46'1415.2
2015-Jul-21 04:33N 37°08' E 004°28'  

Dump ship's entire track history